sensor_id;sensor_type;location;lat;lon;timestamp;pressure;altitude;pressure_sealevel;temperature
79228;BMP280;68658;46.174;11.254;2023-03-31T00:00:28;92604.47;;;8.41
79228;BMP280;68658;46.174;11.254;2023-03-31T00:02:53;92598.22;;;8.39
79228;BMP280;68658;46.174;11.254;2023-03-31T00:05:21;92593.94;;;8.41
79228;BMP280;68658;46.174;11.254;2023-03-31T00:07:52;92595.63;;;8.44
79228;BMP280;68658;46.174;11.254;2023-03-31T00:10:18;92602.84;;;8.49
79228;BMP280;68658;46.174;11.254;2023-03-31T00:12:44;92603.75;;;8.46
79228;BMP280;68658;46.174;11.254;2023-03-31T00:15:10;92599.91;;;8.42
79228;BMP280;68658;46.174;11.254;2023-03-31T00:17:36;92593.94;;;8.41
79228;BMP280;68658;46.174;11.254;2023-03-31T00:20:01;92592.50;;;8.40
79228;BMP280;68658;46.174;11.254;2023-03-31T00:22:29;92582.19;;;8.37
79228;BMP280;68658;46.174;11.254;2023-03-31T00:24:55;92578.13;;;8.36
79228;BMP280;68658;46.174;11.254;2023-03-31T00:27:20;92565.69;;;8.36
79228;BMP280;68658;46.174;11.254;2023-03-31T00:29:46;92576.22;;;8.36
79228;BMP280;68658;46.174;11.254;2023-03-31T00:32:11;92577.38;;;8.30
79228;BMP280;68658;46.174;11.254;2023-03-31T00:34:41;92574.28;;;8.31
79228;BMP280;68658;46.174;11.254;2023-03-31T00:37:06;92576.66;;;8.29
79228;BMP280;68658;46.174;11.254;2023-03-31T00:39:34;92582.66;;;8.30
79228;BMP280;68658;46.174;11.254;2023-03-31T00:42:03;92572.13;;;8.30
79228;BMP280;68658;46.174;11.254;2023-03-31T00:44:29;92568.78;;;8.35
79228;BMP280;68658;46.174;11.254;2023-03-31T00:47:05;92565.22;;;8.38
79228;BMP280;68658;46.174;11.254;2023-03-31T00:49:40;92563.09;;;8.42
79228;BMP280;68658;46.174;11.254;2023-03-31T00:52:14;92555.19;;;8.42
79228;BMP280;68658;46.174;11.254;2023-03-31T00:54:43;92555.91;;;8.37
79228;BMP280;68658;46.174;11.254;2023-03-31T00:57:10;92545.59;;;8.33
79228;BMP280;68658;46.174;11.254;2023-03-31T00:59:39;92541.78;;;8.34
79228;BMP280;68658;46.174;11.254;2023-03-31T01:02:06;92536.53;;;8.34
79228;BMP280;68658;46.174;11.254;2023-03-31T01:04:38;92533.91;;;8.34
79228;BMP280;68658;46.174;11.254;2023-03-31T01:07:23;92534.59;;;8.35
79228;BMP280;68658;46.174;11.254;2023-03-31T01:09:52;92525.25;;;8.28
79228;BMP280;68658;46.174;11.254;2023-03-31T01:12:20;92522.13;;;8.24
79228;BMP280;68658;46.174;11.254;2023-03-31T01:14:48;92519.03;;;8.26
79228;BMP280;68658;46.174;11.254;2023-03-31T01:17:14;92516.66;;;8.28
79228;BMP280;68658;46.174;11.254;2023-03-31T01:46:30;92502.53;;;8.25
79228;BMP280;68658;46.174;11.254;2023-03-31T01:54:42;92507.03;;;8.19
79228;BMP280;68658;46.174;11.254;2023-03-31T01:57:15;92505.13;;;8.20
79228;BMP280;68658;46.174;11.254;2023-03-31T01:59:55;92495.09;;;8.18
79228;BMP280;68658;46.174;11.254;2023-03-31T02:02:27;92488.44;;;8.23
79228;BMP280;68658;46.174;11.254;2023-03-31T02:05:12;92496.75;;;8.21
79228;BMP280;68658;46.174;11.254;2023-03-31T02:07:52;92490.81;;;8.21
79228;BMP280;68658;46.174;11.254;2023-03-31T02:10:19;92487.94;;;8.24
79228;BMP280;68658;46.174;11.254;2023-03-31T02:12:46;92489.13;;;8.23
79228;BMP280;68658;46.174;11.254;2023-03-31T02:15:18;92479.31;;;8.24
79228;BMP280;68658;46.174;11.254;2023-03-31T02:17:47;92472.88;;;8.25
79228;BMP280;68658;46.174;11.254;2023-03-31T02:20:16;92468.34;;;8.25
79228;BMP280;68658;46.174;11.254;2023-03-31T02:22:45;92468.09;;;8.23
79228;BMP280;68658;46.174;11.254;2023-03-31T02:25:14;92451.81;;;8.19
79228;BMP280;68658;46.174;11.254;2023-03-31T02:27:44;92451.81;;;8.19
79228;BMP280;68658;46.174;11.254;2023-03-31T02:30:12;92444.88;;;8.16
79228;BMP280;68658;46.174;11.254;2023-03-31T02:32:42;92456.38;;;8.19
79228;BMP280;68658;46.174;11.254;2023-03-31T02:35:14;92445.13;;;8.18
79228;BMP280;68658;46.174;11.254;2023-03-31T02:37:41;92449.41;;;8.16
79228;BMP280;68658;46.174;11.254;2023-03-31T02:40:11;92440.09;;;8.15
79228;BMP280;68658;46.174;11.254;2023-03-31T02:42:39;92445.13;;;8.18
79228;BMP280;68658;46.174;11.254;2023-03-31T02:45:35;92442.25;;;8.16
79228;BMP280;68658;46.174;11.254;2023-03-31T02:47:52;92452.25;;;8.12
79228;BMP280;68658;46.174;11.254;2023-03-31T02:50:23;92439.56;;;8.11
79228;BMP280;68658;46.174;11.254;2023-03-31T02:53:13;92437.69;;;8.11
79228;BMP280;68658;46.174;11.254;2023-03-31T03:07:11;92432.13;;;8.04
79228;BMP280;68658;46.174;11.254;2023-03-31T03:10:05;92436.44;;;8.01
79228;BMP280;68658;46.174;11.254;2023-03-31T03:18:25;92420.91;;;8.03
79228;BMP280;68658;46.174;11.254;2023-03-31T03:20:50;92424.25;;;8.04
79228;BMP280;68658;46.174;11.254;2023-03-31T03:23:17;92430.22;;;8.04
79228;BMP280;68658;46.174;11.254;2023-03-31T03:25:43;92432.63;;;8.02
79228;BMP280;68658;46.174;11.254;2023-03-31T03:28:09;92421.16;;;8.05
79228;BMP280;68658;46.174;11.254;2023-03-31T03:30:35;92425.69;;;8.05
79228;BMP280;68658;46.174;11.254;2023-03-31T03:33:01;92420.91;;;8.03
79228;BMP280;68658;46.174;11.254;2023-03-31T03:35:27;92422.81;;;8.03
79228;BMP280;68658;46.174;11.254;2023-03-31T03:37:53;92425.66;;;7.99
79228;BMP280;68658;46.174;11.254;2023-03-31T03:40:18;92425.19;;;8.01
79228;BMP280;68658;46.174;11.254;2023-03-31T03:42:44;92410.16;;;8.01
79228;BMP280;68658;46.174;11.254;2023-03-31T03:45:10;92408.25;;;8.07
79228;BMP280;68658;46.174;11.254;2023-03-31T03:47:35;92408.75;;;8.11
79228;BMP280;68658;46.174;11.254;2023-03-31T03:50:03;92419.69;;;8.04
79228;BMP280;68658;46.174;11.254;2023-03-31T03:52:29;92410.63;;;8.05
79228;BMP280;68658;46.174;11.254;2023-03-31T03:54:54;92395.59;;;8.06
79228;BMP280;68658;46.174;11.254;2023-03-31T03:57:20;92382.91;;;8.04
79228;BMP280;68658;46.174;11.254;2023-03-31T03:59:46;92383.41;;;8.08
79228;BMP280;68658;46.174;11.254;2023-03-31T04:02:11;92389.38;;;8.03
79228;BMP280;68658;46.174;11.254;2023-03-31T04:04:37;92388.88;;;7.99
79228;BMP280;68658;46.174;11.254;2023-03-31T04:07:02;92382.69;;;8.02
79228;BMP280;68658;46.174;11.254;2023-03-31T04:09:28;92392.00;;;8.03
79228;BMP280;68658;46.174;11.254;2023-03-31T04:11:54;92391.25;;;7.97
79228;BMP280;68658;46.174;11.254;2023-03-31T04:14:19;92384.81;;;7.93
79228;BMP280;68658;46.174;11.254;2023-03-31T04:16:45;92374.75;;;7.91
79228;BMP280;68658;46.174;11.254;2023-03-31T04:19:12;92373.81;;;7.94
79228;BMP280;68658;46.174;11.254;2023-03-31T04:21:38;92373.31;;;7.96
79228;BMP280;68658;46.174;11.254;2023-03-31T04:24:10;92368.06;;;7.96
79228;BMP280;68658;46.174;11.254;2023-03-31T04:26:40;92379.78;;;8.00
79228;BMP280;68658;46.174;11.254;2023-03-31T04:29:09;92375.72;;;7.99
79228;BMP280;68658;46.174;11.254;2023-03-31T04:31:37;92372.38;;;7.93
79228;BMP280;68658;46.174;11.254;2023-03-31T04:34:04;92362.56;;;7.94
79228;BMP280;68658;46.174;11.254;2023-03-31T04:36:32;92372.38;;;7.93
79228;BMP280;68658;46.174;11.254;2023-03-31T04:38:58;92359.94;;;7.94
79228;BMP280;68658;46.174;11.254;2023-03-31T04:41:25;92360.66;;;7.94
79228;BMP280;68658;46.174;11.254;2023-03-31T04:43:53;92349.91;;;7.92
79228;BMP280;68658;46.174;11.254;2023-03-31T04:46:19;92356.09;;;7.89
79228;BMP280;68658;46.174;11.254;2023-03-31T04:48:45;92360.16;;;7.90
79228;BMP280;68658;46.174;11.254;2023-03-31T04:51:10;92358.25;;;7.91
79228;BMP280;68658;46.174;11.254;2023-03-31T04:53:39;92371.63;;;7.87
79228;BMP280;68658;46.174;11.254;2023-03-31T04:56:05;92379.00;;;7.83
79228;BMP280;68658;46.174;11.254;2023-03-31T04:58:32;92379.50;;;7.87
79228;BMP280;68658;46.174;11.254;2023-03-31T05:00:57;92383.34;;;7.86
79228;BMP280;68658;46.174;11.254;2023-03-31T05:03:23;92388.09;;;7.88
79228;BMP280;68658;46.174;11.254;2023-03-31T05:05:48;92394.31;;;7.90
79228;BMP280;68658;46.174;11.254;2023-03-31T05:08:14;92387.19;;;7.91
79228;BMP280;68658;46.174;11.254;2023-03-31T05:10:40;92389.06;;;7.85
79228;BMP280;68658;46.174;11.254;2023-03-31T05:13:08;92378.56;;;7.90
79228;BMP280;68658;46.174;11.254;2023-03-31T05:15:37;92371.38;;;7.85
79228;BMP280;68658;46.174;11.254;2023-03-31T05:18:02;92356.78;;;7.84
79228;BMP280;68658;46.174;11.254;2023-03-31T05:20:28;92352.28;;;7.90
79228;BMP280;68658;46.174;11.254;2023-03-31T05:22:53;92326.25;;;7.92
79228;BMP280;68658;46.174;11.254;2023-03-31T05:25:18;92315.97;;;7.94
79228;BMP280;68658;46.174;11.254;2023-03-31T05:27:45;92329.34;;;7.85
79228;BMP280;68658;46.174;11.254;2023-03-31T05:30:16;92346.53;;;7.86
79228;BMP280;68658;46.174;11.254;2023-03-31T05:32:41;92350.13;;;7.89
79228;BMP280;68658;46.174;11.254;2023-03-31T05:35:08;92348.19;;;7.89
79228;BMP280;68658;46.174;11.254;2023-03-31T05:37:33;92358.25;;;7.91
79228;BMP280;68658;46.174;11.254;2023-03-31T05:39:59;92361.59;;;7.91
79228;BMP280;68658;46.174;11.254;2023-03-31T05:42:24;92361.81;;;7.88
79228;BMP280;68658;46.174;11.254;2023-03-31T05:44:50;92355.88;;;7.93
79228;BMP280;68658;46.174;11.254;2023-03-31T05:47:16;92346.34;;;7.95
79228;BMP280;68658;46.174;11.254;2023-03-31T05:49:41;92342.75;;;7.98
79228;BMP280;68658;46.174;11.254;2023-03-31T05:52:08;92341.78;;;7.96
79228;BMP280;68658;46.174;11.254;2023-03-31T05:54:33;92342.75;;;7.98
79228;BMP280;68658;46.174;11.254;2023-03-31T05:56:59;92342.28;;;8.00
79228;BMP280;68658;46.174;11.254;2023-03-31T05:59:25;92340.84;;;8.04
79228;BMP280;68658;46.174;11.254;2023-03-31T06:01:53;92331.28;;;8.01
79228;BMP280;68658;46.174;11.254;2023-03-31T06:04:19;92326.97;;;7.93
79228;BMP280;68658;46.174;11.254;2023-03-31T06:06:44;92321.47;;;7.91
79228;BMP280;68658;46.174;11.254;2023-03-31T06:09:10;92322.44;;;7.93
79228;BMP280;68658;46.174;11.254;2023-03-31T06:11:36;92317.91;;;7.99
79228;BMP280;68658;46.174;11.254;2023-03-31T06:14:02;92307.41;;;8.10
79228;BMP280;68658;46.174;11.254;2023-03-31T06:16:27;92291.66;;;8.21
79228;BMP280;68658;46.174;11.254;2023-03-31T06:18:53;92284.50;;;8.27
79228;BMP280;68658;46.174;11.254;2023-03-31T06:21:20;92278.78;;;8.34
79228;BMP280;68658;46.174;11.254;2023-03-31T06:23:46;92276.63;;;8.38
79228;BMP280;68658;46.174;11.254;2023-03-31T06:26:15;92285.47;;;8.35
79228;BMP280;68658;46.174;11.254;2023-03-31T06:28:41;92292.16;;;8.31
79228;BMP280;68658;46.174;11.254;2023-03-31T06:31:12;92281.16;;;8.27
79228;BMP280;68658;46.174;11.254;2023-03-31T06:33:39;92284.75;;;8.24
79228;BMP280;68658;46.174;11.254;2023-03-31T06:36:06;92279.00;;;8.31
79228;BMP280;68658;46.174;11.254;2023-03-31T06:38:33;92271.59;;;8.35
79228;BMP280;68658;46.174;11.254;2023-03-31T06:40:59;92273.03;;;8.30
79228;BMP280;68658;46.174;11.254;2023-03-31T06:43:25;92276.13;;;8.18
79228;BMP280;68658;46.174;11.254;2023-03-31T06:45:54;92279.19;;;8.05
79228;BMP280;68658;46.174;11.254;2023-03-31T06:48:21;92275.84;;;7.99
79228;BMP280;68658;46.174;11.254;2023-03-31T06:50:47;92272.97;;;8.03
79228;BMP280;68658;46.174;11.254;2023-03-31T06:53:13;92271.06;;;7.98
79228;BMP280;68658;46.174;11.254;2023-03-31T06:55:38;92275.84;;;7.99
79228;BMP280;68658;46.174;11.254;2023-03-31T06:58:04;92284.94;;;7.93
79228;BMP280;68658;46.174;11.254;2023-03-31T07:00:30;92285.38;;;7.86
79228;BMP280;68658;46.174;11.254;2023-03-31T07:02:56;92277.03;;;7.87
79228;BMP280;68658;46.174;11.254;2023-03-31T07:05:21;92272.50;;;8.04
79228;BMP280;68658;46.174;11.254;2023-03-31T07:07:57;92266.81;;;8.22
79228;BMP280;68658;46.174;11.254;2023-03-31T07:10:25;92263.72;;;8.29
79228;BMP280;68658;46.174;11.254;2023-03-31T07:12:51;92266.13;;;8.22
79228;BMP280;68658;46.174;11.254;2023-03-31T07:15:17;92260.09;;;8.16
79228;BMP280;68658;46.174;11.254;2023-03-31T07:17:45;92269.44;;;8.17
79228;BMP280;68658;46.174;11.254;2023-03-31T07:20:16;92265.81;;;8.14
79228;BMP280;68658;46.174;11.254;2023-03-31T07:22:46;92263.47;;;8.16
79228;BMP280;68658;46.174;11.254;2023-03-31T07:25:14;92255.09;;;8.18
79228;BMP280;68658;46.174;11.254;2023-03-31T07:27:40;92230.75;;;8.23
79228;BMP280;68658;46.174;11.254;2023-03-31T07:30:07;92220.22;;;8.23
79228;BMP280;68658;46.174;11.254;2023-03-31T07:32:33;92232.13;;;7.91
79228;BMP280;68658;46.174;11.254;2023-03-31T07:34:59;92245.47;;;7.82
79228;BMP280;68658;46.174;11.254;2023-03-31T07:37:25;92235.91;;;7.79
79228;BMP280;68658;46.174;11.254;2023-03-31T07:39:50;92245.72;;;7.89
79228;BMP280;68658;46.174;11.254;2023-03-31T07:42:16;92240.47;;;8.00
79228;BMP280;68658;46.174;11.254;2023-03-31T07:44:41;92251.00;;;8.00
79228;BMP280;68658;46.174;11.254;2023-03-31T07:47:07;92243.81;;;7.95
79228;BMP280;68658;46.174;11.254;2023-03-31T07:49:33;92238.56;;;7.95
79228;BMP280;68658;46.174;11.254;2023-03-31T07:52:00;92251.47;;;8.04
79228;BMP280;68658;46.174;11.254;2023-03-31T07:54:26;92246.94;;;8.05
79228;BMP280;68658;46.174;11.254;2023-03-31T07:56:52;92250.75;;;8.04
79228;BMP280;68658;46.174;11.254;2023-03-31T07:59:17;92249.56;;;7.99
79228;BMP280;68658;46.174;11.254;2023-03-31T08:01:43;92252.44;;;8.01
79228;BMP280;68658;46.174;11.254;2023-03-31T08:04:10;92241.69;;;8.10
79228;BMP280;68658;46.174;11.254;2023-03-31T08:06:36;92244.78;;;8.14
79228;BMP280;68658;46.174;11.254;2023-03-31T08:09:02;92244.78;;;8.14
79228;BMP280;68658;46.174;11.254;2023-03-31T08:11:29;92229.28;;;8.16
79228;BMP280;68658;46.174;11.254;2023-03-31T08:13:55;92230.94;;;8.19
79228;BMP280;68658;46.174;11.254;2023-03-31T08:16:21;92229.75;;;8.09
79228;BMP280;68658;46.174;11.254;2023-03-31T08:18:46;92230.44;;;8.04
79228;BMP280;68658;46.174;11.254;2023-03-31T08:21:12;92212.78;;;8.10
79228;BMP280;68658;46.174;11.254;2023-03-31T08:23:37;92226.38;;;8.09
79228;BMP280;68658;46.174;11.254;2023-03-31T08:26:11;92224.47;;;7.98
79228;BMP280;68658;46.174;11.254;2023-03-31T08:28:37;92223.28;;;7.99
79228;BMP280;68658;46.174;11.254;2023-03-31T08:31:07;92222.06;;;8.00
79228;BMP280;68658;46.174;11.254;2023-03-31T08:33:34;92223.53;;;8.07
79228;BMP280;68658;46.174;11.254;2023-03-31T08:36:05;92203.94;;;8.19
79228;BMP280;68658;46.174;11.254;2023-03-31T08:38:33;92179.56;;;8.29
79228;BMP280;68658;46.174;11.254;2023-03-31T08:41:03;92186.75;;;8.34
79228;BMP280;68658;46.174;11.254;2023-03-31T08:43:42;92206.34;;;8.33
79228;BMP280;68658;46.174;11.254;2023-03-31T08:46:14;92205.84;;;8.29
79228;BMP280;68658;46.174;11.254;2023-03-31T08:48:45;92189.59;;;8.42
79228;BMP280;68658;46.174;11.254;2023-03-31T08:51:38;92184.78;;;8.56
79228;BMP280;68658;46.174;11.254;2023-03-31T08:56:46;92180.97;;;8.57
79228;BMP280;68658;46.174;11.254;2023-03-31T08:59:32;92182.41;;;8.42
79228;BMP280;68658;46.174;11.254;2023-03-31T09:13:51;92181.97;;;8.16
79228;BMP280;68658;46.174;11.254;2023-03-31T09:16:22;92173.09;;;8.19
79228;BMP280;68658;46.174;11.254;2023-03-31T09:18:49;92171.69;;;8.18
79228;BMP280;68658;46.174;11.254;2023-03-31T09:21:52;92161.63;;;8.22
79228;BMP280;68658;46.174;11.254;2023-03-31T09:24:23;92150.66;;;8.18
79228;BMP280;68658;46.174;11.254;2023-03-31T09:26:54;92144.63;;;8.12
79228;BMP280;68658;46.174;11.254;2023-03-31T09:29:47;92149.22;;;8.17
79228;BMP280;68658;46.174;11.254;2023-03-31T09:32:30;92142.28;;;8.25
79228;BMP280;68658;46.174;11.254;2023-03-31T09:35:16;92137.22;;;8.33
79228;BMP280;68658;46.174;11.254;2023-03-31T09:37:42;92141.09;;;8.26
79228;BMP280;68658;46.174;11.254;2023-03-31T09:40:15;92132.47;;;8.20
79228;BMP280;68658;46.174;11.254;2023-03-31T09:42:41;92127.94;;;8.21
79228;BMP280;68658;46.174;11.254;2023-03-31T09:45:13;92123.88;;;8.25
79228;BMP280;68658;46.174;11.254;2023-03-31T09:47:44;92123.81;;;8.47
79228;BMP280;68658;46.174;11.254;2023-03-31T09:50:11;92113.06;;;8.50
79228;BMP280;68658;46.174;11.254;2023-03-31T09:52:42;92104.19;;;8.53
79228;BMP280;68658;46.174;11.254;2023-03-31T09:55:20;92100.63;;;8.45
79228;BMP280;68658;46.174;11.254;2023-03-31T09:57:46;92092.94;;;8.58
79228;BMP280;68658;46.174;11.254;2023-03-31T10:02:53;92104.69;;;8.46
79228;BMP280;68658;46.174;11.254;2023-03-31T10:05:29;92097.47;;;8.58
79228;BMP280;68658;46.174;11.254;2023-03-31T10:10:43;92084.22;;;8.85
79228;BMP280;68658;46.174;11.254;2023-03-31T10:13:09;92077.25;;;8.88
79228;BMP280;68658;46.174;11.254;2023-03-31T10:15:38;92066.56;;;8.69
79228;BMP280;68658;46.174;11.254;2023-03-31T10:18:04;92073.09;;;8.57
79228;BMP280;68658;46.174;11.254;2023-03-31T10:20:31;92069.03;;;8.56
79228;BMP280;68658;46.174;11.254;2023-03-31T10:23:03;92075.97;;;8.54
79228;BMP280;68658;46.174;11.254;2023-03-31T10:25:32;92079.09;;;8.52
79228;BMP280;68658;46.174;11.254;2023-03-31T10:28:03;92077.16;;;8.53
79228;BMP280;68658;46.174;11.254;2023-03-31T10:30:34;92065.97;;;8.47
79228;BMP280;68658;46.174;11.254;2023-03-31T10:33:11;92075.72;;;8.52
79228;BMP280;68658;46.174;11.254;2023-03-31T10:35:38;92082.00;;;8.38
79228;BMP280;68658;46.174;11.254;2023-03-31T10:38:09;92084.63;;;8.33
79228;BMP280;68658;46.174;11.254;2023-03-31T10:40:35;92082.75;;;8.33
79228;BMP280;68658;46.174;11.254;2023-03-31T10:45:42;92075.09;;;8.13
79228;BMP280;68658;46.174;11.254;2023-03-31T10:48:27;92076.53;;;8.14
79228;BMP280;68658;46.174;11.254;2023-03-31T10:50:54;92077.97;;;8.04
79228;BMP280;68658;46.174;11.254;2023-03-31T10:53:22;92066.28;;;8.00
79228;BMP280;68658;46.174;11.254;2023-03-31T10:59:10;92056.19;;;8.31
79228;BMP280;68658;46.174;11.254;2023-03-31T11:19:14;91991.31;;;8.50
79228;BMP280;68658;46.174;11.254;2023-03-31T11:27:52;91952.41;;;9.13
79228;BMP280;68658;46.174;11.254;2023-03-31T11:41:57;91921.84;;;9.04
79228;BMP280;68658;46.174;11.254;2023-03-31T11:44:26;91921.06;;;9.15
79228;BMP280;68658;46.174;11.254;2023-03-31T11:46:57;91918.97;;;9.31
79228;BMP280;68658;46.174;11.254;2023-03-31T11:49:28;91908.47;;;9.79
79228;BMP280;68658;46.174;11.254;2023-03-31T11:54:55;91883.25;;;11.95
79228;BMP280;68658;46.174;11.254;2023-03-31T11:57:28;91873.81;;;12.46
79228;BMP280;68658;46.174;11.254;2023-03-31T11:59:59;91859.31;;;12.14
79228;BMP280;68658;46.174;11.254;2023-03-31T12:02:38;91859.47;;;11.25
79228;BMP280;68658;46.174;11.254;2023-03-31T12:05:06;91849.16;;;11.09
79228;BMP280;68658;46.174;11.254;2023-03-31T12:07:40;91842.91;;;11.38
79228;BMP280;68658;46.174;11.254;2023-03-31T12:10:28;91848.00;;;10.91
79228;BMP280;68658;46.174;11.254;2023-03-31T12:13:12;91849.75;;;12.11
79228;BMP280;68658;46.174;11.254;2023-03-31T12:15:43;91834.94;;;11.69
79228;BMP280;68658;46.174;11.254;2023-03-31T12:20:41;91834.09;;;12.00
79228;BMP280;68658;46.174;11.254;2023-03-31T12:23:14;91820.78;;;14.16
79228;BMP280;68658;46.174;11.254;2023-03-31T12:25:49;91805.88;;;14.13
79228;BMP280;68658;46.174;11.254;2023-03-31T12:28:17;91796.19;;;15.70
79228;BMP280;68658;46.174;11.254;2023-03-31T12:30:43;91790.66;;;15.91
79228;BMP280;68658;46.174;11.254;2023-03-31T12:33:26;91778.66;;;16.93
79228;BMP280;68658;46.174;11.254;2023-03-31T12:50:16;91739.94;;;13.89
79228;BMP280;68658;46.174;11.254;2023-03-31T12:55:47;91749.00;;;11.37
79228;BMP280;68658;46.174;11.254;2023-03-31T13:08:57;91746.03;;;11.01
79228;BMP280;68658;46.174;11.254;2023-03-31T13:13:58;91724.47;;;11.49
79228;BMP280;68658;46.174;11.254;2023-03-31T13:16:25;91728.66;;;11.45
79228;BMP280;68658;46.174;11.254;2023-03-31T13:18:52;91710.56;;;11.10
79228;BMP280;68658;46.174;11.254;2023-03-31T13:21:18;91724.38;;;10.77
79228;BMP280;68658;46.174;11.254;2023-03-31T13:23:45;91711.94;;;10.46
79228;BMP280;68658;46.174;11.254;2023-03-31T14:07:11;91605.75;;;10.40
79228;BMP280;68658;46.174;11.254;2023-03-31T14:09:42;91598.97;;;10.58
79228;BMP280;68658;46.174;11.254;2023-03-31T14:12:34;91586.97;;;10.70
79228;BMP280;68658;46.174;11.254;2023-03-31T14:15:00;91589.97;;;11.12
79228;BMP280;68658;46.174;11.254;2023-03-31T14:17:45;91583.41;;;11.39
79228;BMP280;68658;46.174;11.254;2023-03-31T14:22:45;91569.44;;;15.72
79228;BMP280;68658;46.174;11.254;2023-03-31T14:31:31;91577.63;;;10.81
79228;BMP280;68658;46.174;11.254;2023-03-31T14:39:20;91563.22;;;10.18
79228;BMP280;68658;46.174;11.254;2023-03-31T14:41:54;91569.09;;;10.11
79228;BMP280;68658;46.174;11.254;2023-03-31T14:44:21;91577.56;;;9.91
79228;BMP280;68658;46.174;11.254;2023-03-31T14:46:47;91570.44;;;9.86
79228;BMP280;68658;46.174;11.254;2023-03-31T14:49:26;91566.19;;;9.83
79228;BMP280;68658;46.174;11.254;2023-03-31T14:51:59;91568.16;;;9.77
79228;BMP280;68658;46.174;11.254;2023-03-31T14:54:25;91565.03;;;9.79
79228;BMP280;68658;46.174;11.254;2023-03-31T14:56:53;91556.03;;;9.87
79228;BMP280;68658;46.174;11.254;2023-03-31T14:59:25;91539.81;;;9.96
79228;BMP280;68658;46.174;11.254;2023-03-31T15:01:52;91543.81;;;10.02
79228;BMP280;68658;46.174;11.254;2023-03-31T15:04:22;91535.41;;;10.17
79228;BMP280;68658;46.174;11.254;2023-03-31T15:06:49;91543.53;;;10.19
79228;BMP280;68658;46.174;11.254;2023-03-31T15:09:24;91536.63;;;10.03
79228;BMP280;68658;46.174;11.254;2023-03-31T15:11:57;91538.97;;;10.19
79228;BMP280;68658;46.174;11.254;2023-03-31T15:14:30;91535.22;;;10.28
79228;BMP280;68658;46.174;11.254;2023-03-31T15:16:58;91531.03;;;10.19
79228;BMP280;68658;46.174;11.254;2023-03-31T15:19:32;91528.31;;;10.51
79228;BMP280;68658;46.174;11.254;2023-03-31T15:22:01;91541.50;;;10.51
79228;BMP280;68658;46.174;11.254;2023-03-31T15:24:30;91546.06;;;10.24
79228;BMP280;68658;46.174;11.254;2023-03-31T15:27:01;91561.56;;;10.15
79228;BMP280;68658;46.174;11.254;2023-03-31T15:31:56;91573.69;;;9.92
79228;BMP280;68658;46.174;11.254;2023-03-31T15:34:29;91576.81;;;9.91
79228;BMP280;68658;46.174;11.254;2023-03-31T15:36:58;91580.44;;;9.75
79228;BMP280;68658;46.174;11.254;2023-03-31T15:39:25;91588.72;;;9.66
79228;BMP280;68658;46.174;11.254;2023-03-31T15:41:52;91588.59;;;9.58
79228;BMP280;68658;46.174;11.254;2023-03-31T15:47:10;91582.06;;;9.46
79228;BMP280;68658;46.174;11.254;2023-03-31T15:49:36;91583.66;;;9.36
79228;BMP280;68658;46.174;11.254;2023-03-31T15:52:02;91581.44;;;9.40
79228;BMP280;68658;46.174;11.254;2023-03-31T15:57:02;91575.97;;;9.38
79228;BMP280;68658;46.174;11.254;2023-03-31T15:59:30;91583.03;;;9.30
79228;BMP280;68658;46.174;11.254;2023-03-31T16:01:57;91575.13;;;9.30
79228;BMP280;68658;46.174;11.254;2023-03-31T16:04:29;91575.03;;;9.36
79228;BMP280;68658;46.174;11.254;2023-03-31T16:07:02;91564.91;;;9.40
79228;BMP280;68658;46.174;11.254;2023-03-31T16:09:42;91561.44;;;9.32
79228;BMP280;68658;46.174;11.254;2023-03-31T16:12:38;91557.44;;;9.25
79228;BMP280;68658;46.174;11.254;2023-03-31T16:15:11;91556.75;;;9.25
79228;BMP280;68658;46.174;11.254;2023-03-31T16:17:51;91555.63;;;9.21
79228;BMP280;68658;46.174;11.254;2023-03-31T16:22:51;91558.19;;;9.08
79228;BMP280;68658;46.174;11.254;2023-03-31T16:25:23;91561.19;;;8.99
79228;BMP280;68658;46.174;11.254;2023-03-31T16:27:53;91550.03;;;8.93
79228;BMP280;68658;46.174;11.254;2023-03-31T16:30:33;91554.72;;;9.00
79228;BMP280;68658;46.174;11.254;2023-03-31T16:33:10;91549.22;;;8.98
79228;BMP280;68658;46.174;11.254;2023-03-31T16:35:44;91553.28;;;8.99
79228;BMP280;68658;46.174;11.254;2023-03-31T16:38:13;91554.06;;;8.94
79228;BMP280;68658;46.174;11.254;2023-03-31T16:40:46;91549.50;;;8.94
79228;BMP280;68658;46.174;11.254;2023-03-31T16:43:13;91552.44;;;8.91
79228;BMP280;68658;46.174;11.254;2023-03-31T16:45:40;91548.72;;;8.81
79228;BMP280;68658;46.174;11.254;2023-03-31T16:48:12;91544.66;;;8.80
79228;BMP280;68658;46.174;11.254;2023-03-31T16:50:37;91541.63;;;8.76
79228;BMP280;68658;46.174;11.254;2023-03-31T16:53:03;91548.22;;;8.64
79228;BMP280;68658;46.174;11.254;2023-03-31T16:55:31;91539.63;;;8.63
79228;BMP280;68658;46.174;11.254;2023-03-31T16:57:57;91529.66;;;8.75
79228;BMP280;68658;46.174;11.254;2023-03-31T17:00:29;91531.22;;;8.83
79228;BMP280;68658;46.174;11.254;2023-03-31T17:02:56;91530.50;;;8.83
79228;BMP280;68658;46.174;11.254;2023-03-31T17:05:22;91532.72;;;8.79
79228;BMP280;68658;46.174;11.254;2023-03-31T17:07:48;91527.59;;;8.86
79228;BMP280;68658;46.174;11.254;2023-03-31T17:10:14;91531.16;;;8.89
79228;BMP280;68658;46.174;11.254;2023-03-31T17:12:40;91526.63;;;8.89
79228;BMP280;68658;46.174;11.254;2023-03-31T17:15:06;91522.78;;;8.90
79228;BMP280;68658;46.174;11.254;2023-03-31T17:17:32;91528.44;;;8.94
79228;BMP280;68658;46.174;11.254;2023-03-31T17:19:58;91520.78;;;8.96
79228;BMP280;68658;46.174;11.254;2023-03-31T17:22:23;91514.72;;;9.01
79228;BMP280;68658;46.174;11.254;2023-03-31T17:24:49;91513.78;;;8.99
79228;BMP280;68658;46.174;11.254;2023-03-31T17:27:21;91511.16;;;8.99
79228;BMP280;68658;46.174;11.254;2023-03-31T17:29:46;91505.25;;;8.93
79228;BMP280;68658;46.174;11.254;2023-03-31T17:32:12;91496.28;;;8.83
79228;BMP280;68658;46.174;11.254;2023-03-31T17:34:39;91485.75;;;8.83
79228;BMP280;68658;46.174;11.254;2023-03-31T17:37:05;91483.34;;;8.85
79228;BMP280;68658;46.174;11.254;2023-03-31T17:39:31;91486.19;;;8.87
79228;BMP280;68658;46.174;11.254;2023-03-31T17:41:56;91500.72;;;8.75
79228;BMP280;68658;46.174;11.254;2023-03-31T17:44:22;91520.91;;;8.48
79228;BMP280;68658;46.174;11.254;2023-03-31T17:46:48;91528.72;;;8.54
79228;BMP280;68658;46.174;11.254;2023-03-31T17:49:14;91539.31;;;8.48